Time;durP1;ratioP1;P1;durP2;ratioP2;P2;SDS_P1;SDS_P2;PMS_P1;PMS_P2;Temp;Humidity;BMP_temperature;BMP_pressure;BME280_temperature;BME280_humidity;BME280_pressure;Samples;Min_cycle;Max_cycle;Signal;HPM_P1;HPM_P2
2023/05/08 00:00:03;;;;;;;8.73;5.43;;;;;;;7.81;61.85;99410.28;4972130;28;20369;-70
2023/05/08 00:02:30;;;;;;;9.70;5.70;;;;;;;7.83;61.60;99412.78;4971283;28;20464;-70
2023/05/08 00:04:55;;;;;;;7.85;5.03;;;;;;;7.81;62.23;99410.28;4953856;28;20038;-69
2023/05/08 00:07:21;;;;;;;9.40;6.05;;;;;;;7.82;61.67;99416.59;4971107;28;20022;-69
2023/05/08 00:09:46;;;;;;;14.52;7.25;;;;;;;7.81;62.10;99423.94;4973178;28;20023;-70
2023/05/08 00:12:12;;;;;;;20.77;10.02;;;;;;;7.82;61.99;99424.78;4972781;28;20054;-70
2023/05/08 00:14:38;;;;;;;14.48;7.10;;;;;;;7.82;61.92;99413.84;4970665;28;20399;-70
2023/05/08 00:17:03;;;;;;;7.85;4.90;;;;;;;7.82;61.91;99416.59;4970712;28;20023;-69
2023/05/08 00:19:28;;;;;;;9.77;6.00;;;;;;;7.80;61.88;99421.47;4970968;28;20023;-70
2023/05/08 00:21:54;;;;;;;10.02;6.63;;;;;;;7.78;61.61;99418.16;4970733;28;20039;-69
2023/05/08 00:24:19;;;;;;;9.93;6.60;;;;;;;7.75;61.91;99419.50;4973020;28;20426;-70
2023/05/08 00:26:45;;;;;;;9.32;6.38;;;;;;;7.71;61.82;99408.25;4957204;28;20042;-70
2023/05/08 00:29:10;;;;;;;9.77;7.10;;;;;;;7.70;61.67;99417.53;4970807;28;20054;-70
2023/05/08 00:31:35;;;;;;;9.57;7.10;;;;;;;7.68;61.53;99416.94;4952953;28;20035;-69
2023/05/08 00:34:01;;;;;;;7.75;5.50;;;;;;;7.66;61.73;99410.09;4970339;28;20019;-70
2023/05/08 00:36:27;;;;;;;9.75;6.47;;;;;;;7.65;61.66;99411.19;4970957;28;20077;-70
2023/05/08 00:38:52;;;;;;;7.20;5.57;;;;;;;7.63;61.87;99416.88;4970845;28;20092;-70
2023/05/08 00:41:18;;;;;;;5.53;4.28;;;;;;;7.59;61.89;99410.28;4970399;28;20035;-70
2023/05/08 00:43:43;;;;;;;6.70;4.57;;;;;;;7.57;61.77;99409.69;4973780;28;20030;-70
2023/05/08 00:46:08;;;;;;;6.35;4.88;;;;;;;7.54;61.67;99411.03;4970620;28;20427;-70
2023/05/08 00:48:35;;;;;;;5.03;4.07;;;;;;;7.50;61.98;99407.16;4971241;28;20445;-70
2023/05/08 00:51:03;;;;;;;5.28;3.60;;;;;;;7.49;61.89;99416.44;4970702;28;20030;-70
2023/05/08 00:53:31;;;;;;;4.93;3.92;;;;;;;7.45;61.65;99416.13;4970885;28;20488;-70
2023/05/08 00:55:58;;;;;;;4.53;3.97;;;;;;;7.42;61.75;99422.09;4970507;28;20030;-69
2023/05/08 00:58:25;;;;;;;4.57;3.55;;;;;;;7.37;61.94;99424.75;4973554;28;20031;-69
2023/05/08 01:00:54;;;;;;;5.43;3.63;;;;;;;7.38;62.01;99420.09;5021467;28;20070;-70
2023/05/08 01:03:20;;;;;;;4.60;3.40;;;;;;;7.35;62.04;99418.69;4970656;28;20080;-69
2023/05/08 01:05:45;;;;;;;4.88;3.22;;;;;;;7.36;61.92;99420.34;4978911;28;20117;-71
2023/05/08 01:08:10;;;;;;;4.50;3.30;;;;;;;7.36;61.84;99427.69;4970695;28;20042;-70
2023/05/08 01:10:56;;;;;;;5.63;3.42;;;;;;;7.34;61.89;99430.69;4970316;28;20030;-69
2023/05/08 01:13:54;;;;;;;4.95;3.63;;;;;;;7.33;62.26;99430.97;5019275;28;20049;-70
2023/05/08 01:17:01;;;;;;;5.05;3.65;;;;;;;7.33;62.31;99426.31;5031834;28;20050;-70
2023/05/08 01:19:42;;;;;;;4.68;3.50;;;;;;;7.34;61.96;99427.97;5009208;28;20037;-70
2023/05/08 01:22:38;;;;;;;4.72;3.70;;;;;;;7.34;62.05;99430.69;4973604;28;20125;-70
2023/05/08 01:25:28;;;;;;;4.55;3.53;;;;;;;7.35;62.02;99428.78;5004351;28;20036;-70
2023/05/08 01:28:07;;;;;;;5.38;3.40;;;;;;;7.37;61.94;99432.09;4951459;29;20042;-70
2023/05/08 01:30:51;;;;;;;4.45;3.38;;;;;;;7.36;62.00;99436.72;4961999;28;20095;-70
2023/05/08 01:33:25;;;;;;;4.45;3.20;;;;;;;7.35;61.81;99426.91;4970683;28;20050;-69
2023/05/08 01:35:59;;;;;;;4.25;3.17;;;;;;;7.36;61.72;99434.00;4998194;28;20035;-70
2023/05/08 01:38:57;;;;;;;3.70;3.30;;;;;;;7.37;61.86;99432.94;4970381;28;20358;-70
2023/05/08 01:41:26;;;;;;;3.70;2.95;;;;;;;7.38;61.83;99440.03;4950953;28;20061;-69
2023/05/08 01:43:57;;;;;;;4.75;3.28;;;;;;;7.37;61.85;99443.84;4970023;28;20042;-69
2023/05/08 01:46:26;;;;;;;3.10;2.80;;;;;;;7.37;61.95;99435.66;4970737;28;20039;-69
2023/05/08 01:49:12;;;;;;;4.50;2.85;;;;;;;7.35;61.91;99435.06;4970444;28;20108;-69
2023/05/08 01:51:52;;;;;;;3.92;2.72;;;;;;;7.38;62.01;99433.75;4976479;28;20108;-69
2023/05/08 01:54:24;;;;;;;3.17;2.35;;;;;;;7.38;61.81;99428.28;4971329;28;20595;-70
2023/05/08 01:56:53;;;;;;;3.80;2.75;;;;;;;7.36;61.97;99434.00;4973354;28;20034;-70
2023/05/08 01:59:22;;;;;;;2.50;2.15;;;;;;;7.35;61.75;99431.50;4973449;28;20031;-69
2023/05/08 02:01:52;;;;;;;3.92;2.33;;;;;;;7.34;61.81;99429.84;5000196;28;20080;-70
2023/05/08 02:04:19;;;;;;;3.45;2.47;;;;;;;7.34;61.97;99441.63;4973385;28;20039;-70
2023/05/08 02:06:44;;;;;;;3.38;2.92;;;;;;;7.33;61.71;99429.03;4973175;28;20039;-69
2023/05/08 02:09:10;;;;;;;2.60;2.30;;;;;;;7.33;61.58;99430.97;4972321;28;20076;-70
2023/05/08 02:11:38;;;;;;;4.15;2.40;;;;;;;7.31;61.78;99433.94;4973926;28;20034;-70
2023/05/08 02:14:07;;;;;;;3.25;2.53;;;;;;;7.33;61.72;99436.41;4974207;28;20075;-68
2023/05/08 02:16:34;;;;;;;2.80;2.13;;;;;;;7.30;61.59;99429.53;4973226;28;20031;-70
2023/05/08 02:19:01;;;;;;;3.28;2.55;;;;;;;7.33;61.67;99436.41;5060654;28;20036;-70
2023/05/08 02:21:28;;;;;;;3.05;2.50;;;;;;;7.34;62.03;99438.03;4973313;28;20548;-70
2023/05/08 02:23:56;;;;;;;3.20;2.40;;;;;;;7.32;61.86;99432.84;4973237;28;20408;-70
2023/05/08 02:26:24;;;;;;;3.83;3.00;;;;;;;7.33;61.45;99437.22;4973056;28;20388;-69
2023/05/08 02:28:53;;;;;;;4.30;3.15;;;;;;;7.30;61.91;99435.00;5012535;28;20040;-69
2023/05/08 02:31:21;;;;;;;4.55;2.95;;;;;;;7.28;61.81;99435.25;4983632;28;20033;-69
2023/05/08 02:33:48;;;;;;;3.90;3.03;;;;;;;7.24;61.54;99441.44;4969175;28;20035;-69
2023/05/08 02:36:17;;;;;;;3.58;2.70;;;;;;;7.23;61.72;99437.91;4972793;28;20029;-70
2023/05/08 02:38:50;;;;;;;4.17;3.10;;;;;;;7.24;61.33;99441.44;4971441;28;20046;-69
2023/05/08 02:41:20;;;;;;;5.40;3.50;;;;;;;7.20;61.50;99437.56;4955461;28;20062;-70
2023/05/08 02:43:45;;;;;;;;;;;;;;;7.19;61.56;99444.94;5000086;28;20519;-70
2023/05/08 02:46:15;;;;;;;4.10;3.20;;;;;;;7.17;61.35;99441.63;4972703;28;20001;-69
2023/05/08 02:48:55;;;;;;;4.68;3.38;;;;;;;7.13;61.48;99444.03;4972896;28;20062;-70
2023/05/08 02:51:53;;;;;;;5.57;3.70;;;;;;;7.11;61.30;99446.19;4972815;28;20080;-70
2023/05/08 02:54:35;;;;;;;3.33;2.95;;;;;;;7.13;61.71;99445.94;4972665;28;20026;-70
2023/05/08 02:57:09;;;;;;;2.60;2.40;;;;;;;7.13;61.74;99449.47;4973292;28;20042;-69
2023/05/08 02:59:38;;;;;;;3.13;2.53;;;;;;;7.14;62.16;99444.88;4980742;28;20034;-67
2023/05/08 03:02:17;;;;;;;5.15;2.50;;;;;;;7.13;61.65;99452.19;4973940;28;20087;-70
2023/05/08 03:05:10;;;;;;;3.50;2.05;;;;;;;7.09;61.54;99442.06;4972598;28;20049;-69
2023/05/08 03:07:40;;;;;;;3.90;2.38;;;;;;;7.07;61.74;99439.59;4963889;28;20098;-69
2023/05/08 03:10:09;;;;;;;;;;;;;;;7.06;61.32;99446.13;4973612;28;20027;-68
2023/05/08 03:12:37;;;;;;;4.47;2.20;;;;;;;7.06;61.50;99445.28;5008565;28;19969;-69
2023/05/08 03:15:08;;;;;;;2.58;2.08;;;;;;;7.03;61.46;99448.50;5031570;28;20042;-68
2023/05/08 03:17:35;;;;;;;3.00;2.40;;;;;;;7.03;61.75;99437.59;4983604;28;20417;-69
2023/05/08 03:20:07;;;;;;;3.72;2.22;;;;;;;7.03;61.77;99437.59;4972310;28;20029;-69
2023/05/08 03:22:35;;;;;;;2.85;2.55;;;;;;;7.02;61.31;99444.97;4972664;28;20049;-68
2023/05/08 03:25:04;;;;;;;3.47;2.53;;;;;;;7.02;61.48;99446.84;4971626;28;20110;-68
2023/05/08 03:27:30;;;;;;;4.05;2.67;;;;;;;7.03;61.36;99449.34;4971967;28;20027;-69
2023/05/08 03:29:58;;;;;;;4.38;2.60;;;;;;;7.06;61.66;99453.47;4989976;28;20470;-69
2023/05/08 03:32:26;;;;;;;3.33;2.60;;;;;;;7.09;61.72;99455.69;4991730;28;20027;-70
2023/05/08 03:34:54;;;;;;;4.00;2.78;;;;;;;7.12;61.59;99458.75;4972283;28;20121;-69
2023/05/08 03:37:20;;;;;;;3.65;2.70;;;;;;;7.11;61.86;99462.56;4973917;28;20116;-69
2023/05/08 03:39:45;;;;;;;3.78;3.08;;;;;;;7.14;61.72;99453.03;4972235;28;20118;-69
2023/05/08 03:42:20;;;;;;;5.18;2.90;;;;;;;7.15;61.76;99457.44;4971557;28;20034;-69
2023/05/08 03:44:48;;;;;;;3.75;3.03;;;;;;;7.17;61.64;99454.44;4972206;28;20077;-69
2023/05/08 03:47:16;;;;;;;4.93;3.67;;;;;;;7.15;61.53;99452.78;4971425;28;20023;-69
2023/05/08 03:49:44;;;;;;;3.33;2.80;;;;;;;7.15;61.76;99457.44;4971924;28;20472;-69
2023/05/08 03:52:14;;;;;;;3.58;2.85;;;;;;;7.15;61.96;99447.31;4972035;28;20031;-69
2023/05/08 03:54:40;;;;;;;;;;;;;;;7.17;61.71;99459.88;5036448;28;20039;-69
2023/05/08 03:57:06;;;;;;;2.97;2.60;;;;;;;7.15;61.39;99463.69;4989285;28;19918;-70
2023/05/08 03:59:38;;;;;;;5.53;3.20;;;;;;;7.14;61.48;99469.41;4971852;28;20046;-69
2023/05/08 04:02:27;;;;;;;4.32;3.00;;;;;;;7.11;61.60;99467.19;4971462;28;20168;-70
2023/05/08 04:05:04;;;;;;;4.10;2.92;;;;;;;7.10;61.64;99465.53;4976225;28;20062;-68
2023/05/08 04:07:41;;;;;;;5.28;3.15;;;;;;;7.11;61.82;99476.22;4971666;28;20386;-69
2023/05/08 04:10:33;;;;;;;4.70;3.50;;;;;;;7.11;61.83;99480.81;4960388;28;20031;-69
2023/05/08 04:13:13;;;;;;;4.63;3.45;;;;;;;7.07;61.80;99483.22;4981856;28;20039;-69
2023/05/08 04:15:47;;;;;;;6.03;3.35;;;;;;;7.06;61.54;99480.72;5002607;28;20026;-69
2023/05/08 04:18:17;;;;;;;4.28;3.22;;;;;;;7.03;61.36;99487.53;4970177;28;20026;-69
2023/05/08 04:20:46;;;;;;;4.40;2.72;;;;;;;6.99;61.62;99486.38;4971764;28;20039;-69
2023/05/08 04:23:16;;;;;;;3.47;2.90;;;;;;;6.95;61.50;99488.75;4971220;28;20022;-69
2023/05/08 04:25:43;;;;;;;3.85;3.10;;;;;;;6.95;61.40;99498.84;4971258;28;20035;-69
2023/05/08 04:28:10;;;;;;;4.80;3.15;;;;;;;6.94;61.76;99499.91;5004724;28;20503;-69
2023/05/08 04:30:36;;;;;;;4.20;3.00;;;;;;;6.93;61.32;99503.72;4971105;28;20023;-69
2023/05/08 04:33:02;;;;;;;3.92;3.25;;;;;;;6.91;61.92;99503.97;4970653;28;20027;-69
2023/05/08 04:35:28;;;;;;;3.63;2.78;;;;;;;6.92;61.39;99500.16;4971075;28;20480;-68
2023/05/08 04:37:54;;;;;;;4.07;3.00;;;;;;;6.92;61.56;99502.06;4970986;28;20031;-69
2023/05/08 04:40:19;;;;;;;4.60;3.03;;;;;;;6.94;61.83;99508.09;4976922;28;20030;-69
2023/05/08 04:42:46;;;;;;;3.42;2.75;;;;;;;6.93;61.89;99509.16;5009904;28;20037;-69
2023/05/08 04:45:12;;;;;;;2.95;2.65;;;;;;;6.92;61.45;99502.91;4981565;28;20042;-69
2023/05/08 04:47:38;;;;;;;3.65;2.80;;;;;;;6.91;61.74;99508.59;5014896;28;20037;-69
2023/05/08 04:50:03;;;;;;;4.35;3.17;;;;;;;6.93;61.75;99509.16;4984439;28;20370;-69
2023/05/08 04:52:29;;;;;;;3.92;2.72;;;;;;;6.96;61.61;99520.41;4970898;28;20038;-69
2023/05/08 04:54:54;;;;;;;4.60;2.95;;;;;;;6.98;61.80;99518.25;4970558;28;20042;-69
2023/05/08 04:57:20;;;;;;;4.22;2.40;;;;;;;6.99;61.56;99514.44;4971060;28;20042;-69
2023/05/08 04:59:45;;;;;;;3.65;2.55;;;;;;;7.05;61.48;99517.28;5012695;28;20037;-69
2023/05/08 05:02:10;;;;;;;4.05;2.83;;;;;;;7.07;61.47;99518.69;4970835;28;20046;-69
2023/05/08 05:04:36;;;;;;;2.75;2.17;;;;;;;7.10;61.28;99509.16;4972352;28;20113;-70
2023/05/08 05:07:02;;;;;;;3.50;2.45;;;;;;;7.13;61.59;99517.69;4971064;28;20031;-70
2023/05/08 05:09:28;;;;;;;4.45;2.35;;;;;;;7.13;61.05;99528.59;5002422;28;20077;-69
2023/05/08 05:11:53;;;;;;;4.47;2.35;;;;;;;7.14;61.33;99529.44;4995393;28;20042;-69
2023/05/08 05:14:19;;;;;;;3.45;2.30;;;;;;;7.15;61.45;99522.91;4971497;28;20484;-69
2023/05/08 05:16:44;;;;;;;4.80;3.00;;;;;;;7.17;61.28;99531.66;4988653;28;20035;-69
2023/05/08 05:19:10;;;;;;;3.78;2.47;;;;;;;7.19;61.23;99526.78;4995793;28;20030;-68
2023/05/08 05:21:36;;;;;;;3.22;2.45;;;;;;;7.24;61.06;99534.22;4970037;28;20061;-68
2023/05/08 05:24:03;;;;;;;2.50;2.30;;;;;;;7.29;61.20;99537.03;4970408;28;20042;-68
2023/05/08 05:26:28;;;;;;;2.67;2.10;;;;;;;7.32;61.18;99533.81;4973273;28;20488;-68
2023/05/08 05:28:53;;;;;;;3.72;2.53;;;;;;;7.33;61.01;99535.47;4970641;28;20030;-68
2023/05/08 05:31:19;;;;;;;4.00;2.28;;;;;;;7.37;61.14;99543.97;4983015;28;20442;-67
2023/05/08 05:33:45;;;;;;;2.53;2.33;;;;;;;7.40;60.80;99536.13;4971572;28;20023;-70
2023/05/08 05:36:10;;;;;;;3.65;2.50;;;;;;;7.36;60.78;99540.44;4974230;28;20038;-68
2023/05/08 05:38:36;;;;;;;4.60;3.08;;;;;;;7.32;60.84;99549.38;4992794;28;20035;-68
2023/05/08 05:41:02;;;;;;;2.88;2.38;;;;;;;7.26;60.63;99552.03;4970827;28;20030;-67
2023/05/08 05:43:28;;;;;;;2.83;2.40;;;;;;;7.25;60.76;99554.97;4971100;28;20023;-69
2023/05/08 05:45:55;;;;;;;2.97;2.50;;;;;;;7.25;60.57;99550.38;4970444;28;20023;-67
2023/05/08 05:48:20;;;;;;;3.03;2.20;;;;;;;7.27;60.62;99553.69;4968505;28;20015;-68
2023/05/08 05:50:46;;;;;;;3.03;2.13;;;;;;;7.28;60.50;99565.41;5013488;28;20035;-67
2023/05/08 05:53:11;;;;;;;2.53;2.22;;;;;;;7.29;60.41;99559.72;4976999;28;20153;-68
2023/05/08 05:55:37;;;;;;;4.00;2.25;;;;;;;7.34;60.67;99564.41;4972463;28;20031;-69
2023/05/08 05:58:02;;;;;;;2.88;2.30;;;;;;;7.38;60.54;99570.19;4969965;28;20049;-68
2023/05/08 06:00:30;;;;;;;2.92;2.40;;;;;;;7.42;60.71;99563.16;5065375;28;20025;-69
2023/05/08 06:02:56;;;;;;;3.90;2.20;;;;;;;7.47;60.60;99568.72;5044840;28;20469;-69
2023/05/08 06:05:22;;;;;;;4.38;2.25;;;;;;;7.53;60.69;99572.38;4985065;28;20472;-69
2023/05/08 06:07:47;;;;;;;3.42;2.60;;;;;;;7.59;60.62;99576.81;4973103;28;20033;-67
2023/05/08 06:10:13;;;;;;;3.65;2.50;;;;;;;7.66;60.71;99573.94;5071631;28;20458;-68
2023/05/08 06:12:39;;;;;;;4.15;2.88;;;;;;;7.70;60.19;99580.56;5069018;28;20037;-68
2023/05/08 06:15:05;;;;;;;4.88;3.22;;;;;;;7.72;60.45;99576.47;5017978;28;20032;-68
2023/05/08 06:17:30;;;;;;;8.55;5.57;;;;;;;7.74;60.15;99579.78;5057240;28;20393;-68
2023/05/08 06:19:56;;;;;;;3.92;3.40;;;;;;;7.79;60.44;99592.69;5064926;28;20030;-68
2023/05/08 06:22:23;;;;;;;4.43;3.28;;;;;;;7.86;60.70;99582.41;5072560;28;20462;-68
2023/05/08 06:24:52;;;;;;;3.38;2.35;;;;;;;7.91;60.45;99589.88;4996072;28;20035;-68
2023/05/08 06:27:21;;;;;;;3.97;2.80;;;;;;;7.93;60.11;99590.47;4977588;28;20473;-68
2023/05/08 06:29:47;;;;;;;6.10;4.43;;;;;;;7.96;60.03;99594.59;4970794;28;20034;-67
2023/05/08 06:32:12;;;;;;;14.93;13.43;;;;;;;7.96;60.19;99598.13;4970972;28;20144;-68
2023/05/08 06:34:38;;;;;;;7.00;5.38;;;;;;;7.96;60.13;99603.59;4970733;28;20531;-68
2023/05/08 06:37:03;;;;;;;3.47;2.58;;;;;;;7.97;59.59;99601.69;4970705;28;20392;-68
2023/05/08 06:39:29;;;;;;;2.72;2.17;;;;;;;7.97;59.77;99601.69;4970657;28;20074;-68
2023/05/08 06:41:54;;;;;;;2.45;2.25;;;;;;;7.99;59.45;99602.28;4993867;28;20056;-68
2023/05/08 06:44:19;;;;;;;5.03;2.97;;;;;;;7.97;59.53;99605.25;5075832;28;20024;-68
2023/05/08 06:46:45;;;;;;;3.28;2.45;;;;;;;7.96;59.04;99600.03;5035721;28;20067;-69
2023/05/08 06:49:10;;;;;;;7.60;4.10;;;;;;;7.95;59.32;99610.13;4979800;28;20042;-69
2023/05/08 06:51:37;;;;;;;8.00;4.15;;;;;;;7.95;59.59;99606.59;4972942;28;20058;-69
2023/05/08 06:54:06;;;;;;;3.88;2.78;;;;;;;7.93;59.29;99615.03;5009017;28;20046;-68
2023/05/08 06:56:32;;;;;;;4.68;2.55;;;;;;;7.95;59.07;99618.31;4972625;28;20034;-68
2023/05/08 06:58:57;;;;;;;2.95;2.38;;;;;;;7.97;59.27;99616.16;4973667;28;20031;-68
2023/05/08 07:01:22;;;;;;;3.38;2.70;;;;;;;8.00;58.98;99625.78;4973235;28;20476;-69
2023/05/08 07:03:48;;;;;;;4.22;2.80;;;;;;;8.02;59.09;99610.78;4990862;28;20039;-68
2023/05/08 07:06:13;;;;;;;3.33;2.30;;;;;;;8.06;59.37;99619.31;4972663;28;20039;-67
2023/05/08 07:08:39;;;;;;;5.35;3.33;;;;;;;8.09;59.06;99618.81;5032083;28;20050;-67
2023/05/08 07:11:04;;;;;;;3.67;2.75;;;;;;;8.10;59.51;99619.63;4983783;28;20038;-66
2023/05/08 07:13:29;;;;;;;4.70;2.80;;;;;;;8.14;59.12;99620.78;4972582;28;20042;-67
2023/05/08 07:15:55;;;;;;;3.80;3.08;;;;;;;8.16;59.34;99624.91;4961990;28;20050;-68
2023/05/08 07:18:20;;;;;;;4.93;4.15;;;;;;;8.26;59.12;99629.72;4973045;28;20027;-68
2023/05/08 07:20:46;;;;;;;4.93;3.60;;;;;;;8.34;58.99;99622.97;4973130;28;20110;-68
2023/05/08 07:23:11;;;;;;;4.47;3.38;;;;;;;8.35;58.96;99613.69;4973637;28;20030;-68
2023/05/08 07:25:37;;;;;;;9.90;7.20;;;;;;;8.38;58.98;99631.50;5001851;28;20023;-68
2023/05/08 07:28:02;;;;;;;14.55;9.20;;;;;;;8.42;58.92;99611.63;5040072;28;20112;-68
2023/05/08 07:30:28;;;;;;;7.63;4.57;;;;;;;8.49;58.49;99625.13;5074909;28;20028;-69
2023/05/08 07:32:53;;;;;;;4.32;3.20;;;;;;;8.56;59.00;99630.41;5021207;28;20445;-68
2023/05/08 07:35:19;;;;;;;3.40;2.17;;;;;;;8.62;59.25;99637.56;4972622;28;20030;-67
2023/05/08 07:37:44;;;;;;;2.80;2.25;;;;;;;8.69;59.01;99637.41;4979766;28;20077;-67
2023/05/08 07:40:10;;;;;;;3.13;2.78;;;;;;;8.76;58.55;99640.78;4992264;28;20038;-67
2023/05/08 07:42:42;;;;;;;3.28;2.42;;;;;;;8.81;58.82;99637.28;4972500;28;20029;-67
2023/05/08 07:45:09;;;;;;;4.38;3.58;;;;;;;8.89;58.83;99643.09;4972623;28;20476;-68
2023/05/08 07:47:34;;;;;;;3.45;2.83;;;;;;;8.98;58.96;99639.94;4971868;28;20026;-68
2023/05/08 07:50:00;;;;;;;5.30;3.40;;;;;;;9.00;58.69;99644.03;4979238;28;20077;-67
2023/05/08 07:52:25;;;;;;;11.57;6.97;;;;;;;9.00;58.35;99646.78;4975061;28;20047;-68
2023/05/08 07:54:51;;;;;;;13.30;7.70;;;;;;;9.05;57.98;99640.56;4976821;28;20479;-67
2023/05/08 07:57:16;;;;;;;7.25;5.07;;;;;;;9.08;58.44;99651.81;4971954;28;20030;-68
2023/05/08 07:59:44;;;;;;;5.38;3.97;;;;;;;9.11;58.34;99647.75;4971967;28;20035;-70
2023/05/08 08:02:10;;;;;;;5.85;4.57;;;;;;;9.16;57.97;99645.06;4995462;28;20027;-68
2023/05/08 08:04:35;;;;;;;7.18;4.63;;;;;;;9.26;58.06;99643.50;4969138;28;20346;-69
2023/05/08 08:07:01;;;;;;;8.23;4.75;;;;;;;9.32;58.26;99647.94;4980563;28;20106;-70
2023/05/08 08:09:26;;;;;;;6.07;4.18;;;;;;;9.38;58.36;99644.16;4974635;28;20031;-69
2023/05/08 08:11:51;;;;;;;4.57;3.50;;;;;;;9.44;57.76;99645.03;5005566;28;20434;-70
2023/05/08 08:14:17;;;;;;;4.38;3.50;;;;;;;9.52;58.02;99652.78;4970266;28;20046;-69
2023/05/08 08:16:42;;;;;;;5.07;2.83;;;;;;;9.58;57.99;99648.19;4971677;28;20035;-67
2023/05/08 08:19:09;;;;;;;3.75;2.88;;;;;;;9.62;58.01;99657.53;4973249;28;20437;-67
2023/05/08 08:21:34;;;;;;;4.88;2.60;;;;;;;9.65;57.11;99649.63;4972048;28;20132;-69
2023/05/08 08:24:00;;;;;;;4.53;2.80;;;;;;;9.68;56.85;99659.22;4972458;28;20137;-70
2023/05/08 08:26:25;;;;;;;3.53;2.50;;;;;;;9.68;57.59;99653.75;4972262;28;20377;-69
2023/05/08 08:28:51;;;;;;;3.47;2.80;;;;;;;9.67;56.81;99654.81;4971980;28;20030;-70
2023/05/08 08:31:16;;;;;;;3.55;2.90;;;;;;;9.67;56.83;99647.44;4999655;28;20020;-67
2023/05/08 08:33:42;;;;;;;3.92;2.47;;;;;;;9.67;56.59;99660.31;5062192;28;20025;-68
2023/05/08 08:36:14;;;;;;;4.25;2.50;;;;;;;9.66;56.37;99655.91;4969623;28;20061;-70
2023/05/08 08:38:39;;;;;;;2.83;2.53;;;;;;;9.63;56.17;99653.69;4971004;28;20392;-71
2023/05/08 08:41:05;;;;;;;4.65;2.95;;;;;;;9.55;56.15;99655.00;5008786;28;20043;-68
2023/05/08 08:43:30;;;;;;;3.55;2.92;;;;;;;9.55;56.24;99648.72;5065378;28;20431;-72
2023/05/08 08:45:58;;;;;;;4.82;2.55;;;;;;;9.57;55.99;99657.50;5070645;28;20479;-71
2023/05/08 08:48:26;;;;;;;4.75;2.22;;;;;;;9.53;55.87;99652.53;5025912;28;20039;-71
2023/05/08 08:50:57;;;;;;;3.60;2.72;;;;;;;9.51;56.60;99651.97;4971869;28;20396;-72
2023/05/08 08:53:33;;;;;;;4.10;2.72;;;;;;;9.53;56.16;99651.69;4971370;28;20043;-71
2023/05/08 08:56:01;;;;;;;4.93;2.70;;;;;;;9.54;55.67;99656.09;4971669;28;20121;-72
2023/05/08 08:58:33;;;;;;;4.43;2.72;;;;;;;9.57;56.63;99662.97;4971962;28;20035;-72
2023/05/08 09:00:59;;;;;;;2.65;2.38;;;;;;;9.59;56.09;99661.63;4971644;28;20076;-72
2023/05/08 09:03:25;;;;;;;3.20;2.65;;;;;;;9.63;56.06;99660.00;4953692;28;20062;-71
2023/05/08 09:05:51;;;;;;;5.05;3.38;;;;;;;9.70;56.16;99662.53;4969202;28;20107;-71
2023/05/08 09:08:20;;;;;;;4.07;2.67;;;;;;;9.76;55.96;99668.91;4971639;28;20030;-71
2023/05/08 09:10:45;;;;;;;3.92;2.70;;;;;;;9.83;56.51;99664.84;4971649;28;20480;-70
2023/05/08 09:13:11;;;;;;;5.50;2.70;;;;;;;9.90;56.08;99661.88;4970969;28;20101;-71
2023/05/08 09:15:36;;;;;;;5.13;2.83;;;;;;;9.94;56.09;99663.00;4971178;28;20116;-71
2023/05/08 09:18:02;;;;;;;5.63;3.30;;;;;;;10.02;56.52;99664.41;4971425;28;20084;-70
2023/05/08 09:20:28;;;;;;;5.68;3.78;;;;;;;10.12;56.03;99667.25;5038012;28;20041;-70
2023/05/08 09:22:54;;;;;;;4.43;3.33;;;;;;;10.15;56.15;99670.53;4970948;28;20085;-70
2023/05/08 09:25:20;;;;;;;4.88;2.67;;;;;;;10.18;55.75;99670.03;4971070;28;20461;-70
2023/05/08 09:27:45;;;;;;;4.35;3.40;;;;;;;10.21;55.16;99662.06;4995404;28;20033;-71
2023/05/08 09:30:13;;;;;;;3.17;2.75;;;;;;;10.26;55.45;99664.03;5019834;28;20021;-70
2023/05/08 09:32:40;;;;;;;3.55;3.22;;;;;;;10.32;55.11;99663.00;4982916;28;20030;-72
2023/05/08 09:35:08;;;;;;;5.05;2.40;;;;;;;10.34;54.97;99663.56;4966114;28;20039;-71
2023/05/08 09:37:36;;;;;;;4.03;2.90;;;;;;;10.35;54.36;99667.94;4970218;28;20041;-71
2023/05/08 09:40:13;;;;;;;3.42;2.60;;;;;;;10.35;55.00;99665.22;5005247;28;20034;-71
2023/05/08 09:42:38;;;;;;;4.22;2.63;;;;;;;10.35;54.42;99667.09;4970003;28;20035;-71
2023/05/08 09:45:05;;;;;;;2.88;2.28;;;;;;;10.35;54.29;99667.09;4970282;28;20038;-71
2023/05/08 09:47:30;;;;;;;5.80;4.25;;;;;;;10.34;53.97;99662.72;4965128;28;20541;-71
2023/05/08 09:50:09;;;;;;;5.18;3.70;;;;;;;10.32;54.83;99670.38;4969557;28;20031;-72
2023/05/08 09:52:36;;;;;;;4.57;3.00;;;;;;;10.35;54.68;99664.38;4975762;28;20508;-71
2023/05/08 09:55:09;;;;;;;4.38;3.20;;;;;;;10.37;54.46;99670.41;4968989;28;20084;-71
2023/05/08 09:57:39;;;;;;;4.75;3.45;;;;;;;10.35;53.97;99669.84;4967467;28;20027;-72
2023/05/08 10:00:07;;;;;;;4.95;3.83;;;;;;;10.34;54.42;99663.56;4983834;28;20025;-71
2023/05/08 10:02:34;;;;;;;4.68;3.88;;;;;;;10.33;54.58;99667.38;4972874;28;20043;-72
2023/05/08 10:05:00;;;;;;;3.53;2.80;;;;;;;10.34;54.32;99659.97;4975118;28;20567;-69
2023/05/08 10:07:32;;;;;;;3.67;2.65;;;;;;;10.33;54.50;99658.31;4970327;28;20022;-69
2023/05/08 10:10:00;;;;;;;3.22;2.42;;;;;;;10.36;53.88;99655.88;4973199;28;20039;-69
2023/05/08 10:12:26;;;;;;;3.80;3.08;;;;;;;10.41;53.92;99652.38;4951426;28;20089;-69
2023/05/08 10:14:52;;;;;;;3.97;2.40;;;;;;;10.42;53.83;99656.75;4974217;28;20047;-70
2023/05/08 10:17:24;;;;;;;5.30;2.83;;;;;;;10.44;53.85;99649.09;4983709;28;20528;-69
2023/05/08 10:19:54;;;;;;;4.38;2.92;;;;;;;10.46;53.78;99651.56;4979434;28;20044;-69
2023/05/08 10:22:23;;;;;;;5.65;2.63;;;;;;;10.49;53.64;99653.78;4989004;28;20145;-70
2023/05/08 10:24:50;;;;;;;5.15;2.55;;;;;;;10.50;53.54;99649.94;4972325;28;20069;-69
2023/05/08 10:27:26;;;;;;;4.57;3.00;;;;;;;10.51;53.56;99643.38;4984617;28;20050;-70
2023/05/08 10:29:59;;;;;;;3.55;2.60;;;;;;;10.53;53.66;99642.03;4970586;28;20023;-69
2023/05/08 10:32:27;;;;;;;4.18;2.65;;;;;;;10.52;52.99;99629.41;4970619;28;20465;-69
2023/05/08 10:34:57;;;;;;;2.97;2.58;;;;;;;10.53;52.96;99643.94;4970598;28;20034;-68
2023/05/08 10:37:23;;;;;;;3.30;2.72;;;;;;;10.54;53.34;99627.22;4976436;28;20548;-66
2023/05/08 10:39:49;;;;;;;7.32;2.80;;;;;;;10.56;54.07;99636.00;4977149;28;20193;-68
2023/05/08 10:42:15;;;;;;;4.97;2.65;;;;;;;10.59;53.60;99631.06;4970344;28;20070;-68
2023/05/08 10:44:40;;;;;;;4.72;2.60;;;;;;;10.67;53.94;99628.63;4972483;28;20062;-69
2023/05/08 10:47:39;;;;;;;4.63;2.33;;;;;;;10.73;53.67;99629.47;4972981;28;20035;-67
2023/05/08 10:50:11;;;;;;;5.10;2.97;;;;;;;10.78;53.71;99628.69;4979045;28;20126;-68
2023/05/08 10:53:11;;;;;;;3.58;2.90;;;;;;;10.80;53.43;99623.75;4979210;28;20031;-68
2023/05/08 10:55:41;;;;;;;4.90;3.10;;;;;;;10.91;53.56;99622.66;4969425;28;20138;-68
2023/05/08 10:58:10;;;;;;;5.32;2.50;;;;;;;11.05;54.04;99619.44;4971980;28;20039;-69
2023/05/08 11:00:48;;;;;;;3.72;2.83;;;;;;;11.19;54.04;99615.06;4978856;28;20039;-68
2023/05/08 11:03:15;;;;;;;3.42;2.67;;;;;;;11.34;53.82;99611.53;4992574;28;20027;-68
2023/05/08 11:05:48;;;;;;;3.95;2.88;;;;;;;11.59;54.15;99613.47;4986065;28;20117;-68
2023/05/08 11:08:19;;;;;;;4.47;3.00;;;;;;;11.75;53.45;99599.69;4990984;28;20034;-68
2023/05/08 11:10:52;;;;;;;4.47;2.80;;;;;;;11.84;53.03;99619.19;4983979;28;20109;-68
2023/05/08 11:13:19;;;;;;;3.10;2.70;;;;;;;11.93;53.07;99617.53;4986270;28;20503;-68
2023/05/08 11:15:49;;;;;;;4.07;2.33;;;;;;;12.01;53.60;99614.28;4971995;28;20117;-69
2023/05/08 11:18:16;;;;;;;4.88;2.40;;;;;;;12.09;52.73;99617.56;4986113;28;20027;-69
2023/05/08 11:20:57;;;;;;;3.65;2.90;;;;;;;12.15;52.49;99610.97;4978496;28;20496;-69
2023/05/08 11:23:27;;;;;;;5.05;3.10;;;;;;;12.26;52.68;99603.50;4986921;28;20031;-68
2023/05/08 11:25:59;;;;;;;4.15;2.20;;;;;;;12.37;53.24;99605.13;4986407;28;20023;-69
2023/05/08 11:28:24;;;;;;;3.97;2.50;;;;;;;12.51;52.78;99603.41;4972075;28;20038;-68
2023/05/08 11:30:54;;;;;;;4.97;2.67;;;;;;;12.63;53.06;99594.00;4977169;28;20419;-68
2023/05/08 11:33:19;;;;;;;4.68;2.70;;;;;;;12.74;52.89;99608.53;4988884;28;20023;-69
2023/05/08 11:35:54;;;;;;;4.50;2.70;;;;;;;12.78;52.09;99599.47;4973398;28;20023;-69
2023/05/08 11:38:22;;;;;;;2.60;2.03;;;;;;;12.78;51.95;99595.88;4985351;28;20120;-69
2023/05/08 11:41:03;;;;;;;4.18;2.33;;;;;;;12.77;51.37;99606.06;4970980;28;20041;-68
2023/05/08 11:43:54;;;;;;;6.47;2.78;;;;;;;12.74;51.35;99598.38;4972248;28;20037;-68
2023/05/08 11:46:20;;;;;;;6.07;2.30;;;;;;;12.75;51.19;99599.19;4973710;28;20561;-68
2023/05/08 11:48:46;;;;;;;4.47;2.28;;;;;;;12.78;50.81;99604.13;4983570;28;20106;-68